createdAt,value
2023-01-25T00:15:45.902Z,15.5
2023-01-25T00:45:46.354Z,15.3
2023-01-25T01:15:47.166Z,15.1
2023-01-25T01:45:47.683Z,14.9
2023-01-25T02:15:48.225Z,14.8
2023-01-25T02:45:48.858Z,14.7
2023-01-25T03:15:49.443Z,14.6
2023-01-25T03:45:49.967Z,14.5
2023-01-25T04:15:50.426Z,14.4
2023-01-25T05:16:10.313Z,14.3
2023-01-25T05:46:20.838Z,14.3
2023-01-25T06:16:21.456Z,14.3
2023-01-25T06:46:32.240Z,14.4
2023-01-25T07:16:32.715Z,14.4
2023-01-25T07:46:33.651Z,13.4
2023-01-25T08:14:35.590Z,12.2
2023-01-25T08:44:36.136Z,12.3
2023-01-25T09:14:36.904Z,13.5
2023-01-25T09:44:37.388Z,13.4
2023-01-25T10:14:37.864Z,13.4
2023-01-25T10:44:48.286Z,13.4
2023-01-25T11:14:48.756Z,13.4
2023-01-25T11:44:59.568Z,13.4
2023-01-25T12:15:00.063Z,13.4
2023-01-25T12:45:00.959Z,13.4
2023-01-25T13:15:01.388Z,13.4
2023-01-25T13:45:02.163Z,13.4
2023-01-25T14:15:02.612Z,13.4
2023-01-25T14:45:03.067Z,13.4
2023-01-25T15:15:03.517Z,13.4
2023-01-25T15:45:06.808Z,13.4
2023-01-25T16:15:07.333Z,13.4
2023-01-25T16:36:23.486Z,13.4
2023-01-25T17:06:24.147Z,13.3
2023-01-25T17:36:24.818Z,11.6
2023-01-25T18:06:28.237Z,11.5
2023-01-25T18:36:28.677Z,11.5
2023-01-25T19:06:39.109Z,11.5
2023-01-25T19:36:39.542Z,11.5
2023-01-25T20:06:50.477Z,11.5
2023-01-25T20:36:51.133Z,11.5
2023-01-25T21:06:51.681Z,11.5
2023-01-25T21:36:52.562Z,11.5
2023-01-25T22:06:53.339Z,11.6
2023-01-25T22:36:54.187Z,11.6
2023-01-25T23:06:54.612Z,11.7
2023-01-25T23:36:55.876Z,11.7
